This is the latest recevied weather packets stored in our database for station/object KE8GJZ-2. If no packets are shown the sender has not sent any weather packets the latest 10 day(s).
| Time | Temp. | Humidity | Pressure | Rain* | Wind** | Luminosity | Snow |
|---|---|---|---|---|---|---|---|
| 1777733210 | 6.67° C | 59% | 1019.7 hPa | 0 mm | - | 155 W/m² | - |
| 1777732907 | 6.67° C | 64% | 1019.9 hPa | 0 mm | - | 174 W/m² | - |
| 1777732603 | 6.67° C | 63% | 1019.9 hPa | 0 mm | - | 724 W/m² | - |
| 1777732301 | 5.56° C | 67% | 1019.8 hPa | 0 mm | - | 779 W/m² | - |
| 1777731998 | 6.11° C | 65% | 1019.9 hPa | 0 mm | - | 179 W/m² | - |
| 1777731695 | 6.11° C | 66% | 1020 hPa | 0 mm | - | 452 W/m² | - |
| 1777731392 | 6.11° C | 66% | 1020.1 hPa | 0 mm | - | 149 W/m² | - |
| 1777731090 | 6.67° C | 66% | 1020 hPa | 0 mm | - | 128 W/m² | - |
| 1777730788 | 6.67° C | 62% | 1020 hPa | 0 mm | - | 656 W/m² | - |
| 1777730484 | 5.56° C | 70% | 1020.2 hPa | 0 mm | - | 575 W/m² | - |
| 1777730180 | 6.11° C | 67% | 1020.2 hPa | 0 mm | - | 527 W/m² | - |
| 1777729877 | 5.56° C | 72% | 1020.3 hPa | 0 mm | - | 434 W/m² | - |
| 1777729574 | 5.56° C | 67% | 1020.3 hPa | 0 mm | - | 496 W/m² | - |
| 1777729270 | 5.56° C | 68% | 1020.1 hPa | 0 mm | - | 111 W/m² | - |
| 1777728967 | 5.56° C | 75% | 1020.3 hPa | 0 mm | - | 124 W/m² | - |
| 1777728664 | 5° C | 75% | 1020.4 hPa | 0 mm | - | 436 W/m² | - |
| 1777728361 | 5° C | 75% | 1020.6 hPa | 0 mm | - | 413 W/m² | - |
| 1777728058 | 5° C | 81% | 1020.5 hPa | 0 mm | - | 380 W/m² | - |
| 1777727755 | 4.44° C | 81% | 1020.7 hPa | 0 mm | - | 368 W/m² | - |
| 1777727452 | 5° C | 81% | 1020.4 hPa | 0 mm | - | 337 W/m² | - |
| 1777727149 | 4.44° C | 84% | 1020.6 hPa | 0 mm | - | 328 W/m² | - |
| 1777726847 | 5° C | 81% | 1020.5 hPa | 0 mm | - | 316 W/m² | - |
| 1777726543 | 4.44° C | 83% | 1020.6 hPa | 0 mm | - | 291 W/m² | - |
| 1777726241 | 4.44° C | 84% | 1020.7 hPa | 0 mm | - | 266 W/m² | - |
| 1777725937 | 5° C | 83% | 1020.5 hPa | 0 mm | - | 251 W/m² | - |
* Rain latest hour (hover to see other rain measurements)
** Current wind speed in m/s (hover to see current wind gust speed)